createdAt,value
2022-07-29T00:01:03.685Z,3.35
2022-07-29T00:03:30.294Z,3.75
2022-07-29T00:08:23.546Z,3.45
2022-07-29T00:10:50.995Z,4.35
2022-07-29T00:13:17.618Z,4.15
2022-07-29T00:18:10.796Z,4.15
2022-07-29T00:23:04.115Z,4.47
2022-07-29T00:25:30.683Z,4.68
2022-07-29T00:28:00.361Z,5.03
2022-07-29T00:30:27.471Z,4.47
2022-07-29T00:35:38.860Z,4.50
2022-07-29T00:38:05.433Z,4.45
2022-07-29T00:42:58.389Z,4.38
2022-07-29T00:45:26.359Z,5.60
2022-07-29T00:47:52.935Z,4.47
2022-07-29T00:50:19.608Z,4.90
2022-07-29T00:52:46.430Z,5.55
2022-07-29T00:55:16.908Z,5.55
2022-07-29T00:57:45.659Z,4.93
2022-07-29T01:00:19.669Z,5.28
2022-07-29T01:02:50.565Z,5.05
2022-07-29T01:05:22.278Z,5.20
2022-07-29T01:07:52.035Z,5.05
2022-07-29T01:10:20.355Z,4.78
2022-07-29T01:12:50.134Z,4.80
2022-07-29T01:15:16.963Z,4.10
2022-07-29T01:17:53.479Z,4.85
2022-07-29T01:20:59.294Z,5.15
2022-07-29T01:23:44.359Z,4.50
2022-07-29T01:26:22.703Z,5.80
2022-07-29T01:29:05.325Z,5.38
2022-07-29T01:31:58.720Z,6.03
2022-07-29T01:34:41.366Z,5.05
2022-07-29T01:37:12.250Z,5.90
2022-07-29T01:39:40.448Z,6.60
2022-07-29T01:42:16.318Z,6.47
2022-07-29T01:44:53.296Z,6.03
2022-07-29T01:47:24.349Z,6.45
2022-07-29T01:49:53.765Z,4.82
2022-07-29T01:52:26.793Z,5.43
2022-07-29T01:54:58.289Z,6.35
2022-07-29T01:57:31.876Z,5.22
2022-07-29T02:00:01.174Z,4.78
2022-07-29T02:02:31.119Z,5.82
2022-07-29T02:05:01.082Z,5.45
2022-07-29T02:07:30.490Z,5.90
2022-07-29T02:09:59.044Z,5.15
2022-07-29T02:12:26.731Z,4.68
2022-07-29T02:14:55.767Z,5.80
2022-07-29T02:17:25.895Z,5.88
2022-07-29T02:19:57.317Z,5.55
2022-07-29T02:22:25.435Z,6.75
2022-07-29T02:24:53.062Z,5.90
2022-07-29T02:27:23.850Z,6.00
2022-07-29T02:29:52.138Z,6.55
2022-07-29T02:32:20.309Z,5.93
2022-07-29T02:34:48.114Z,6.28
2022-07-29T02:37:16.888Z,6.03
2022-07-29T02:39:45.855Z,6.05
2022-07-29T02:42:16.036Z,6.18
2022-07-29T02:44:43.104Z,6.35
2022-07-29T02:47:20.287Z,5.13
2022-07-29T02:52:31.106Z,6.32
2022-07-29T02:55:23.401Z,6.18
2022-07-29T02:58:00.573Z,6.65
2022-07-29T03:00:29.886Z,6.95
2022-07-29T03:03:00.369Z,5.93
2022-07-29T03:05:27.332Z,5.97
2022-07-29T03:07:57.919Z,6.07
2022-07-29T03:10:27.265Z,6.18
2022-07-29T03:12:56.216Z,5.15
2022-07-29T03:15:22.999Z,5.13
2022-07-29T03:17:53.332Z,5.95
2022-07-29T03:20:20.310Z,5.68
2022-07-29T03:22:50.035Z,5.97
2022-07-29T03:25:20.010Z,5.90
2022-07-29T03:27:47.664Z,5.70
2022-07-29T03:30:18.386Z,6.30
2022-07-29T03:32:49.859Z,4.90
2022-07-29T03:35:20.248Z,5.65
2022-07-29T03:37:47.337Z,5.30
2022-07-29T03:40:19.138Z,6.32
2022-07-29T03:42:47.671Z,5.75
2022-07-29T03:45:19.182Z,5.78
2022-07-29T03:47:57.055Z,5.18
2022-07-29T03:50:26.857Z,5.70
2022-07-29T03:52:53.549Z,5.55
2022-07-29T03:57:48.432Z,5.15
2022-07-29T04:00:16.901Z,6.22
2022-07-29T04:02:49.651Z,5.25
2022-07-29T04:05:17.627Z,5.45
2022-07-29T04:07:48.653Z,5.50
2022-07-29T04:10:30.357Z,6.03
2022-07-29T04:12:59.609Z,5.40
2022-07-29T04:15:26.293Z,5.10
2022-07-29T04:17:57.781Z,5.75
2022-07-29T04:20:24.269Z,5.80
2022-07-29T04:22:50.788Z,5.78
2022-07-29T04:25:17.388Z,6.32
2022-07-29T04:30:28.106Z,5.68
2022-07-29T04:32:54.698Z,5.75
2022-07-29T04:37:48.082Z,5.80
2022-07-29T04:40:14.603Z,5.40
2022-07-29T04:42:46.384Z,5.85
2022-07-29T04:45:13.894Z,6.15
2022-07-29T04:47:40.958Z,5.55
2022-07-29T04:50:09.674Z,6.00
2022-07-29T04:52:36.295Z,5.55
2022-07-29T04:57:29.645Z,5.75
2022-07-29T05:02:22.966Z,6.57
2022-07-29T05:04:49.781Z,5.75
2022-07-29T05:07:16.322Z,5.50
2022-07-29T05:09:42.801Z,5.38
2022-07-29T05:12:09.878Z,5.50
2022-07-29T05:14:36.385Z,6.45
2022-07-29T05:17:02.907Z,6.03
2022-07-29T05:19:29.417Z,5.55
2022-07-29T05:24:22.345Z,5.60
2022-07-29T05:29:43.664Z,4.40
2022-07-29T05:32:01.821Z,4.10
2022-07-29T05:34:28.319Z,3.60
2022-07-29T05:36:54.937Z,3.67
2022-07-29T05:39:21.608Z,3.70
2022-07-29T05:41:51.889Z,3.90
2022-07-29T05:44:19.019Z,4.22
2022-07-29T05:46:45.871Z,3.88
2022-07-29T05:49:12.978Z,3.72
2022-07-29T05:51:53.555Z,4.15
2022-07-29T05:54:20.061Z,3.20
2022-07-29T05:56:46.697Z,3.97
2022-07-29T05:59:18.020Z,3.65
2022-07-29T06:01:44.933Z,3.25
2022-07-29T06:04:11.564Z,3.40
2022-07-29T06:06:38.119Z,4.30
2022-07-29T06:09:11.550Z,3.35
2022-07-29T06:11:39.181Z,3.75
2022-07-29T06:14:05.714Z,3.80
2022-07-29T06:16:32.289Z,3.88
2022-07-29T06:18:58.828Z,4.00
2022-07-29T06:21:25.354Z,3.92
2022-07-29T06:23:51.854Z,3.05
2022-07-29T06:26:18.310Z,3.50
2022-07-29T06:28:56.847Z,3.30
2022-07-29T06:31:23.337Z,3.13
2022-07-29T06:33:49.976Z,3.90
2022-07-29T06:36:16.531Z,3.63
2022-07-29T06:38:49.196Z,3.28
2022-07-29T06:41:18.255Z,3.72
2022-07-29T06:43:52.611Z,3.10
2022-07-29T06:46:23.149Z,3.28
2022-07-29T06:48:51.325Z,3.25
2022-07-29T06:51:22.131Z,3.15
2022-07-29T06:54:01.544Z,2.80
2022-07-29T06:56:39.420Z,3.17
2022-07-29T06:59:08.143Z,2.88
2022-07-29T07:01:34.972Z,3.28
2022-07-29T07:04:01.640Z,2.83
2022-07-29T07:06:28.445Z,3.20
2022-07-29T07:08:55.130Z,3.13
2022-07-29T07:11:21.694Z,2.95
2022-07-29T07:13:48.212Z,3.45
2022-07-29T07:16:14.910Z,3.45
2022-07-29T07:18:41.605Z,2.83
2022-07-29T07:21:08.154Z,3.40
2022-07-29T07:23:34.704Z,3.10
2022-07-29T07:26:01.223Z,3.03
2022-07-29T07:28:27.718Z,3.20
2022-07-29T07:30:54.248Z,3.33
2022-07-29T07:33:20.810Z,3.40
2022-07-29T07:35:47.709Z,3.35
2022-07-29T07:38:14.246Z,2.72
2022-07-29T07:40:41.818Z,3.22
2022-07-29T07:43:08.315Z,2.75
2022-07-29T07:45:35.052Z,2.83
2022-07-29T07:48:01.752Z,2.65
2022-07-29T07:50:28.336Z,3.50
2022-07-29T07:52:58.709Z,2.90
2022-07-29T07:55:26.521Z,3.00
2022-07-29T07:57:53.209Z,3.15
2022-07-29T08:00:20.055Z,3.25
2022-07-29T08:02:50.928Z,3.63
2022-07-29T08:05:18.106Z,2.70
2022-07-29T08:07:47.814Z,4.15
2022-07-29T08:10:36.783Z,3.72
2022-07-29T08:13:10.157Z,3.20
2022-07-29T08:15:36.794Z,3.38
2022-07-29T08:18:08.521Z,3.13
2022-07-29T08:20:36.848Z,3.42
2022-07-29T08:23:05.266Z,3.08
2022-07-29T08:25:31.777Z,2.72
2022-07-29T08:27:58.258Z,3.20
2022-07-29T08:30:24.837Z,2.95
2022-07-29T08:32:55.231Z,3.45
2022-07-29T08:35:24.554Z,2.97
2022-07-29T08:37:52.123Z,3.35
2022-07-29T08:40:19.224Z,4.20
2022-07-29T08:42:45.935Z,3.13
2022-07-29T08:45:12.999Z,3.60
2022-07-29T08:47:40.777Z,2.90
2022-07-29T08:50:10.730Z,3.20
2022-07-29T08:52:40.192Z,2.78
2022-07-29T08:55:08.597Z,2.83
2022-07-29T08:57:37.073Z,2.90
2022-07-29T09:00:11.774Z,3.28
2022-07-29T09:02:45.259Z,2.92
2022-07-29T09:05:13.657Z,2.67
2022-07-29T09:07:40.918Z,2.78
2022-07-29T09:10:07.934Z,2.97
2022-07-29T09:12:37.933Z,2.97
2022-07-29T09:15:05.131Z,2.63
2022-07-29T09:17:45.944Z,2.58
2022-07-29T09:20:15.733Z,2.80
2022-07-29T09:22:42.476Z,3.00
2022-07-29T09:25:09.595Z,2.65
2022-07-29T09:27:36.639Z,2.60
2022-07-29T09:30:08.742Z,3.35
2022-07-29T09:32:55.011Z,2.80
2022-07-29T09:35:24.363Z,2.97
2022-07-29T09:37:51.862Z,2.83
2022-07-29T09:40:20.809Z,3.05
2022-07-29T09:42:47.917Z,2.63
2022-07-29T09:45:35.809Z,2.58
2022-07-29T09:48:18.446Z,2.95
2022-07-29T09:50:47.368Z,2.97
2022-07-29T09:53:31.449Z,2.90
2022-07-29T09:55:58.134Z,3.17
2022-07-29T09:58:24.604Z,2.92
2022-07-29T10:00:52.897Z,2.97
2022-07-29T10:03:20.009Z,3.10
2022-07-29T10:05:47.458Z,2.90
2022-07-29T10:08:14.102Z,3.10
2022-07-29T10:10:43.913Z,2.92
2022-07-29T10:13:16.202Z,3.60
2022-07-29T10:15:46.723Z,3.55
2022-07-29T10:18:15.462Z,3.08
2022-07-29T10:20:42.322Z,3.13
2022-07-29T10:23:09.968Z,3.25
2022-07-29T10:25:36.472Z,2.95
2022-07-29T10:28:03.773Z,2.97
2022-07-29T10:30:30.459Z,2.75
2022-07-29T10:33:18.741Z,3.22
2022-07-29T10:36:00.267Z,2.72
2022-07-29T10:38:45.628Z,2.75
2022-07-29T10:41:43.606Z,3.17
2022-07-29T10:44:22.998Z,2.88
2022-07-29T10:46:51.585Z,2.97
2022-07-29T10:49:25.087Z,3.03
2022-07-29T10:52:02.432Z,2.78
2022-07-29T10:54:45.845Z,3.25
2022-07-29T10:58:01.361Z,2.63
2022-07-29T11:00:30.825Z,3.22
2022-07-29T11:02:59.423Z,3.17
2022-07-29T11:05:32.068Z,2.50
2022-07-29T11:08:20.359Z,2.95
2022-07-29T11:10:49.791Z,2.95
2022-07-29T11:13:44.155Z,2.38
2022-07-29T11:16:11.344Z,2.60
2022-07-29T11:19:13.780Z,2.55
2022-07-29T11:22:05.167Z,2.80
2022-07-29T11:24:32.941Z,2.70
2022-07-29T11:27:18.193Z,3.05
2022-07-29T11:32:22.698Z,2.80
2022-07-29T11:35:17.313Z,2.58
2022-07-29T11:37:52.766Z,2.45
2022-07-29T11:40:24.537Z,2.20
2022-07-29T11:42:52.754Z,2.40
2022-07-29T11:45:42.876Z,2.08
2022-07-29T11:48:29.715Z,2.17
2022-07-29T11:50:59.937Z,1.85
2022-07-29T11:53:29.154Z,2.75
2022-07-29T11:56:00.431Z,1.88
2022-07-29T11:58:28.371Z,2.33
2022-07-29T12:00:56.223Z,2.00
2022-07-29T12:03:34.796Z,1.77
2022-07-29T12:06:04.529Z,1.73
2022-07-29T12:08:41.946Z,1.52
2022-07-29T12:11:17.340Z,1.90
2022-07-29T12:13:46.878Z,1.73
2022-07-29T12:16:15.987Z,1.73
2022-07-29T12:18:42.589Z,1.73
2022-07-29T12:21:09.307Z,1.50
2022-07-29T12:23:38.999Z,1.35
2022-07-29T12:26:07.573Z,1.52
2022-07-29T12:28:39.641Z,1.35
2022-07-29T12:31:06.565Z,1.88
2022-07-29T12:33:35.924Z,1.48
2022-07-29T12:36:07.524Z,1.95
2022-07-29T12:38:36.001Z,1.77
2022-07-29T12:41:04.365Z,2.13
2022-07-29T12:43:31.491Z,2.08
2022-07-29T12:45:58.405Z,1.95
2022-07-29T12:48:37.014Z,1.80
2022-07-29T12:51:05.442Z,2.72
2022-07-29T12:53:32.008Z,2.15
2022-07-29T12:56:07.925Z,2.40
2022-07-29T12:58:41.474Z,2.28
2022-07-29T13:01:17.310Z,2.67
2022-07-29T13:03:57.775Z,2.38
2022-07-29T13:06:41.347Z,2.60
2022-07-29T13:09:09.338Z,3.40
2022-07-29T13:11:43.012Z,2.60
2022-07-29T13:14:15.147Z,2.77
2022-07-29T13:17:04.263Z,3.40
2022-07-29T13:19:36.769Z,3.28
2022-07-29T13:22:03.594Z,2.90
2022-07-29T13:24:30.174Z,3.90
2022-07-29T13:26:56.686Z,3.20
2022-07-29T13:29:23.151Z,3.70
2022-07-29T13:31:50.007Z,3.38
2022-07-29T13:34:16.619Z,3.67
2022-07-29T13:36:43.102Z,3.20
2022-07-29T13:39:09.582Z,3.70
2022-07-29T13:41:36.056Z,4.53
2022-07-29T13:44:03.587Z,3.42
2022-07-29T13:46:30.108Z,3.95
2022-07-29T13:48:56.715Z,3.83
2022-07-29T13:51:23.912Z,3.70
2022-07-29T13:53:50.462Z,4.00
2022-07-29T13:56:16.933Z,3.45
2022-07-29T13:58:43.411Z,3.35
2022-07-29T14:01:09.981Z,3.78
2022-07-29T14:03:39.245Z,4.43
2022-07-29T14:06:06.725Z,4.13
2022-07-29T14:08:33.314Z,3.72
2022-07-29T14:10:59.821Z,3.90
2022-07-29T14:13:26.495Z,3.85
2022-07-29T14:15:53.779Z,3.40
2022-07-29T14:18:20.329Z,3.28
2022-07-29T14:20:46.815Z,2.63
2022-07-29T14:23:13.275Z,2.85
2022-07-29T14:25:42.780Z,2.85
2022-07-29T14:28:11.025Z,2.97
2022-07-29T14:30:38.073Z,3.28
2022-07-29T14:33:04.572Z,2.50
2022-07-29T14:35:31.089Z,2.42
2022-07-29T14:37:58.185Z,2.22
2022-07-29T14:40:24.750Z,1.88
2022-07-29T14:42:51.275Z,2.45
2022-07-29T14:45:17.909Z,2.20
2022-07-29T14:47:44.435Z,2.17
2022-07-29T14:50:11.387Z,1.77
2022-07-29T14:52:38.130Z,2.30
2022-07-29T14:55:05.110Z,2.30
2022-07-29T14:57:42.800Z,2.15
2022-07-29T15:00:10.643Z,2.67
2022-07-29T15:03:00.481Z,2.15
2022-07-29T15:05:23.707Z,1.98
2022-07-29T15:07:50.245Z,2.40
2022-07-29T15:10:16.748Z,1.60
2022-07-29T15:12:43.245Z,2.30
2022-07-29T15:15:10.060Z,1.92
2022-07-29T15:17:36.732Z,2.17
2022-07-29T15:27:00.114Z,2.72
2022-07-29T15:29:26.659Z,2.58
2022-07-29T15:31:53.241Z,2.20
2022-07-29T15:34:21.490Z,2.20
2022-07-29T15:36:52.806Z,2.63
2022-07-29T15:39:21.616Z,3.10
2022-07-29T15:41:48.139Z,2.67
2022-07-29T15:44:14.623Z,2.42
2022-07-29T15:49:47.788Z,2.42
2022-07-29T15:52:24.747Z,2.00
2022-07-29T15:57:19.547Z,2.40
2022-07-29T16:02:12.429Z,2.20
2022-07-29T16:04:39.006Z,2.63
2022-07-29T16:07:05.600Z,3.08
2022-07-29T16:09:32.049Z,2.72
2022-07-29T16:14:28.208Z,2.83
2022-07-29T16:16:55.416Z,3.03
2022-07-29T16:19:22.261Z,2.88
2022-07-29T16:24:15.081Z,3.40
2022-07-29T16:29:08.006Z,2.75
2022-07-29T16:34:01.515Z,2.45
2022-07-29T16:36:28.173Z,2.30
2022-07-29T16:41:21.157Z,2.72
2022-07-29T16:46:18.856Z,2.08
2022-07-29T16:48:46.184Z,1.55
2022-07-29T16:51:14.432Z,1.90
2022-07-29T16:53:41.400Z,2.05
2022-07-29T16:56:11.194Z,2.17
2022-07-29T16:58:43.545Z,1.83
2022-07-29T17:01:11.293Z,1.90
2022-07-29T17:04:00.120Z,1.88
2022-07-29T17:06:28.705Z,2.28
2022-07-29T17:08:56.324Z,1.70
2022-07-29T17:11:22.772Z,2.03
2022-07-29T17:14:10.150Z,2.28
2022-07-29T17:16:36.701Z,2.45
2022-07-29T17:19:03.417Z,1.88
2022-07-29T17:21:29.888Z,2.85
2022-07-29T17:23:56.505Z,1.85
2022-07-29T17:26:23.043Z,2.13
2022-07-29T17:31:16.237Z,2.72
2022-07-29T17:33:42.820Z,2.78
2022-07-29T17:38:53.228Z,1.70
2022-07-29T17:41:20.771Z,2.20
2022-07-29T17:43:48.106Z,2.08
2022-07-29T17:46:14.728Z,1.92
2022-07-29T17:48:41.325Z,1.77
2022-07-29T17:51:08.201Z,2.05
2022-07-29T17:53:34.770Z,1.80
2022-07-29T17:58:27.831Z,2.30
2022-07-29T18:00:54.372Z,1.70
2022-07-29T18:05:47.662Z,1.97
2022-07-29T18:08:14.154Z,2.42
2022-07-29T18:13:07.755Z,2.25
2022-07-29T18:18:00.585Z,2.50
2022-07-29T18:20:27.876Z,2.38
2022-07-29T18:25:20.824Z,2.10
2022-07-29T18:30:15.185Z,2.60
2022-07-29T18:32:54.329Z,2.05
2022-07-29T18:35:26.314Z,2.28
2022-07-29T18:38:00.962Z,2.05
2022-07-29T18:40:29.655Z,2.15
2022-07-29T18:42:56.347Z,2.20
2022-07-29T18:47:54.881Z,2.20
2022-07-29T18:50:29.008Z,2.47
2022-07-29T18:53:01.096Z,2.70
2022-07-29T18:55:27.572Z,2.63
2022-07-29T18:57:56.601Z,2.42
2022-07-29T19:00:24.899Z,2.60
2022-07-29T19:02:52.507Z,2.42
2022-07-29T19:05:19.215Z,2.50
2022-07-29T19:07:45.702Z,2.10
2022-07-29T19:12:39.170Z,2.97
2022-07-29T19:17:32.409Z,3.15
2022-07-29T19:19:58.859Z,2.75
2022-07-29T19:22:25.355Z,2.63
2022-07-29T19:27:18.865Z,2.58
2022-07-29T19:29:45.794Z,2.97
2022-07-29T19:32:13.468Z,3.05
2022-07-29T19:35:10.433Z,2.75
2022-07-29T19:37:37.353Z,3.28
2022-07-29T19:40:04.876Z,2.65
2022-07-29T19:42:31.372Z,3.05
2022-07-29T19:44:57.825Z,3.13
2022-07-29T19:47:24.387Z,2.85
2022-07-29T19:52:17.271Z,3.20
2022-07-29T19:54:43.764Z,2.90
2022-07-29T19:57:10.283Z,3.38
2022-07-29T19:59:37.220Z,3.33
2022-07-29T20:04:30.500Z,3.55
2022-07-29T20:07:01.374Z,3.72
2022-07-29T20:09:28.363Z,3.75
2022-07-29T20:14:21.598Z,3.97
2022-07-29T20:16:48.338Z,3.47
2022-07-29T20:19:15.027Z,3.65
2022-07-29T20:21:41.518Z,4.20
2022-07-29T20:24:08.641Z,3.90
2022-07-29T20:26:35.108Z,4.45
2022-07-29T20:29:05.022Z,4.78
2022-07-29T20:31:32.403Z,4.22
2022-07-29T20:34:00.100Z,4.55
2022-07-29T20:36:27.390Z,4.07
2022-07-29T20:38:54.922Z,4.20
2022-07-29T20:41:21.739Z,4.20
2022-07-29T20:43:51.321Z,4.53
2022-07-29T20:46:18.304Z,4.18
2022-07-29T20:48:46.847Z,4.35
2022-07-29T20:51:14.136Z,4.55
2022-07-29T20:53:41.520Z,4.32
2022-07-29T20:56:08.304Z,4.57
2022-07-29T20:58:36.295Z,5.55
2022-07-29T21:01:04.069Z,4.68
2022-07-29T21:03:30.597Z,4.25
2022-07-29T21:05:57.179Z,4.82
2022-07-29T21:08:23.698Z,4.60
2022-07-29T21:10:50.337Z,5.10
2022-07-29T21:15:46.221Z,4.60
2022-07-29T21:18:30.220Z,4.47
2022-07-29T21:20:58.564Z,5.30
2022-07-29T21:23:26.344Z,4.65
2022-07-29T21:25:54.000Z,4.60
2022-07-29T21:28:26.459Z,4.00
2022-07-29T21:30:54.175Z,4.55
2022-07-29T21:33:20.712Z,4.22
2022-07-29T21:38:34.226Z,4.45
2022-07-29T21:41:01.171Z,4.03
2022-07-29T21:43:28.820Z,3.60
2022-07-29T21:45:56.413Z,4.95
2022-07-29T21:48:23.816Z,4.45
2022-07-29T21:50:51.452Z,4.10
2022-07-29T21:53:20.815Z,4.28
2022-07-29T21:55:54.257Z,4.75
2022-07-29T21:58:22.835Z,4.80
2022-07-29T22:02:14.406Z,4.00
2022-07-29T22:07:07.428Z,4.60
2022-07-29T22:09:33.957Z,4.35
2022-07-29T22:12:02.483Z,4.00
2022-07-29T22:14:29.018Z,4.28
2022-07-29T22:19:27.311Z,4.40
2022-07-29T22:21:54.339Z,4.13
2022-07-29T22:24:20.950Z,5.57
2022-07-29T22:26:47.498Z,4.10
2022-07-29T22:31:44.520Z,4.30
2022-07-29T22:34:13.312Z,5.25
2022-07-29T22:36:41.012Z,5.38
2022-07-29T22:39:07.572Z,4.93
2022-07-29T22:44:00.610Z,5.15
2022-07-29T22:46:27.186Z,5.03
2022-07-29T22:48:53.882Z,4.75
2022-07-29T22:53:47.016Z,5.03
2022-07-29T22:56:13.572Z,5.68
2022-07-29T22:58:40.217Z,5.55
2022-07-29T23:03:33.828Z,5.18
2022-07-29T23:06:00.443Z,5.50
2022-07-29T23:10:53.498Z,5.13
2022-07-29T23:15:46.727Z,5.50
2022-07-29T23:18:13.469Z,5.63
2022-07-29T23:20:40.338Z,5.68
2022-07-29T23:23:06.992Z,6.03
2022-07-29T23:28:00.384Z,5.20
2022-07-29T23:30:27.554Z,5.40
2022-07-29T23:32:54.759Z,5.20
2022-07-29T23:35:22.472Z,5.30
2022-07-29T23:37:49.172Z,5.38
2022-07-29T23:40:15.862Z,6.43
2022-07-29T23:42:43.205Z,5.90
2022-07-29T23:45:11.001Z,5.80
2022-07-29T23:47:37.775Z,6.95
2022-07-29T23:50:06.362Z,6.60
2022-07-29T23:52:32.897Z,6.43
2022-07-29T23:55:36.983Z,6.10
2022-07-29T23:57:46.122Z,6.82
